Terminal Aerodrome Forecast
Issued by NWS Quad Cities IA IL

Home | Current Version | Previous Version | Text Only | Print | Product List | Glossary On
Versions: 1 2 3 4 5 6 7 8 9 10 11 12 13 14 15 16 17 18
000
FTUS43 KDVN 181730
TAFDBQ
TAF
KDBQ 181730Z 1818/1918 33006KT P6SM SCT100
     FM190000 36004KT P6SM BKN100
     FM191200 VRB03KT 4SM BR SCT250
     FM191500 05005KT P6SM SKC=

USA.gov is the U.S. government's official web portal to all federal, state and local government web resources and services.